Time;durP1;ratioP1;P1;durP2;ratioP2;P2;SDS_P1;SDS_P2;PMS_P1;PMS_P2;Temp;Humidity;BMP_temperature;BMP_pressure;BME280_temperature;BME280_humidity;BME280_pressure;Samples;Min_cycle;Max_cycle;Signal;HPM_P1;HPM_P2
2023/12/12 00:02:08;;;;;;;0.30;0.30;;;;;;;6.50;100.00;98664.75;5089575;28;20052;-60
2023/12/12 00:04:36;;;;;;;0.38;0.38;;;;;;;6.42;100.00;98668.56;5088022;28;20154;-60
2023/12/12 00:07:03;;;;;;;0.50;0.50;;;;;;;6.38;100.00;98664.72;5088142;28;20108;-59
2023/12/12 00:09:30;;;;;;;0.38;0.38;;;;;;;6.35;100.00;98673.19;5093221;28;20040;-59
2023/12/12 00:11:57;;;;;;;0.25;0.25;;;;;;;6.35;100.00;98667.84;5091667;28;20078;-59
2023/12/12 00:14:24;;;;;;;0.40;0.40;;;;;;;6.19;100.00;98667.47;5093303;28;20044;-60
2023/12/12 00:16:51;;;;;;;0.40;0.40;;;;;;;6.20;100.00;98671.75;5090159;28;20379;-59
2023/12/12 00:19:20;;;;;;;0.40;0.40;;;;;;;6.09;100.00;98669.88;5095657;28;20045;-60
2023/12/12 00:21:47;;;;;;;0.50;0.50;;;;;;;6.05;100.00;98669.50;5089926;28;20048;-60
2023/12/12 00:24:14;;;;;;;0.30;0.30;;;;;;;5.93;100.00;98665.16;5092986;28;20152;-59
2023/12/12 00:26:41;;;;;;;0.40;0.40;;;;;;;5.80;100.00;98671.47;5091967;28;22050;-59
2023/12/12 00:29:08;;;;;;;0.40;0.40;;;;;;;5.75;100.00;98669.47;5100135;28;21248;-59
2023/12/12 00:31:35;;;;;;;0.38;0.38;;;;;;;5.77;100.00;98662.09;5092818;28;20097;-59
2023/12/12 00:34:02;;;;;;;0.50;0.50;;;;;;;5.71;100.00;98652.34;5096939;28;20044;-59
2023/12/12 00:36:31;;;;;;;0.52;0.52;;;;;;;5.75;100.00;98650.06;5087918;28;20112;-60
2023/12/12 00:38:58;;;;;;;0.30;0.30;;;;;;;5.74;100.00;98649.25;5091478;28;20042;-59
2023/12/12 00:41:32;;;;;;;0.30;0.30;;;;;;;5.76;100.00;98655.13;5090107;28;20067;-59
2023/12/12 00:43:59;;;;;;;0.32;0.32;;;;;;;5.78;100.00;98650.41;5088628;28;20462;-59
2023/12/12 00:46:26;;;;;;;0.40;0.40;;;;;;;5.61;100.00;98641.44;5091295;28;20044;-59
2023/12/12 00:48:53;;;;;;;0.40;0.40;;;;;;;5.67;100.00;98637.88;5089797;28;20044;-59
2023/12/12 00:51:21;;;;;;;0.50;0.50;;;;;;;5.73;100.00;98629.00;5086812;28;20044;-58
2023/12/12 00:53:50;;;;;;;0.50;0.50;;;;;;;5.81;100.00;98622.53;5091610;28;20680;-59
2023/12/12 00:56:17;;;;;;;0.50;0.50;;;;;;;5.86;100.00;98621.88;5089421;28;20055;-59
2023/12/12 00:58:44;;;;;;;0.40;0.40;;;;;;;5.78;100.00;98626.47;5089866;28;20044;-59
2023/12/12 01:01:12;;;;;;;0.40;0.40;;;;;;;5.77;100.00;98622.19;5090061;28;20036;-59
2023/12/12 01:03:39;;;;;;;0.50;0.50;;;;;;;5.67;100.00;98629.91;5091124;28;20036;-59
2023/12/12 01:06:22;;;;;;;0.40;0.40;;;;;;;5.64;100.00;98630.34;5087285;28;20306;-59
2023/12/12 01:08:50;;;;;;;0.50;0.50;;;;;;;5.55;100.00;98632.50;5095294;28;20127;-59
2023/12/12 01:11:17;;;;;;;0.50;0.50;;;;;;;5.63;100.00;98628.72;5089993;28;20083;-59
2023/12/12 01:13:44;;;;;;;0.50;0.50;;;;;;;5.62;100.00;98629.78;5095361;28;20660;-59
2023/12/12 01:16:11;;;;;;;0.50;0.50;;;;;;;5.61;100.00;98630.78;5087968;28;20051;-59
2023/12/12 01:18:39;;;;;;;0.50;0.50;;;;;;;5.55;100.00;98629.84;5094358;28;20044;-59
2023/12/12 01:21:06;;;;;;;0.40;0.40;;;;;;;5.41;100.00;98641.69;5095308;28;20402;-59
2023/12/12 01:23:48;;;;;;;0.40;0.40;;;;;;;5.41;100.00;98653.13;5091247;28;20040;-59
2023/12/12 01:26:16;;;;;;;0.40;0.40;;;;;;;5.45;100.00;98644.72;5082699;28;20059;-59
2023/12/12 01:28:43;;;;;;;0.40;0.40;;;;;;;5.50;100.00;98639.53;5093896;28;20056;-59
2023/12/12 01:31:10;;;;;;;0.40;0.40;;;;;;;5.68;100.00;98634.19;5095852;28;20409;-59
2023/12/12 01:33:38;;;;;;;0.40;0.40;;;;;;;5.72;100.00;98638.03;5087324;28;20433;-59
2023/12/12 01:36:06;;;;;;;0.50;0.50;;;;;;;5.82;100.00;98638.28;5088156;28;20420;-60
2023/12/12 01:38:33;;;;;;;0.40;0.40;;;;;;;5.88;100.00;98639.22;5096311;28;20178;-58
2023/12/12 01:41:03;;;;;;;0.40;0.40;;;;;;;6.00;100.00;98633.97;5097473;28;20047;-59
2023/12/12 01:43:32;;;;;;;0.30;0.30;;;;;;;6.15;100.00;98641.53;5086673;28;20055;-59
2023/12/12 01:46:03;;;;;;;0.50;0.50;;;;;;;6.18;100.00;98636.56;5089400;28;20046;-59
2023/12/12 01:48:31;;;;;;;0.35;0.35;;;;;;;6.28;100.00;98629.88;5096858;27;20047;-59
2023/12/12 01:50:58;;;;;;;0.40;0.40;;;;;;;6.27;100.00;98623.75;5093523;28;20048;-59
2023/12/12 01:53:28;;;;;;;0.40;0.40;;;;;;;6.31;100.00;98626.75;5097747;27;20101;-60
2023/12/12 01:55:55;;;;;;;0.40;0.40;;;;;;;6.32;100.00;98628.41;5099223;28;20453;-60
2023/12/12 01:58:22;;;;;;;0.35;0.35;;;;;;;6.36;100.00;98632.19;5091852;28;20066;-60
2023/12/12 02:00:51;;;;;;;0.40;0.40;;;;;;;6.29;100.00;98627.00;5090140;28;20433;-60
2023/12/12 02:03:18;;;;;;;0.40;0.40;;;;;;;6.36;100.00;98634.84;5087858;28;20146;-59
2023/12/12 02:05:48;;;;;;;0.50;0.50;;;;;;;6.31;100.00;98640.88;5091661;28;20383;-59
2023/12/12 02:08:15;;;;;;;0.40;0.40;;;;;;;6.30;100.00;98649.09;5099169;28;20047;-60
2023/12/12 02:10:42;;;;;;;0.40;0.40;;;;;;;6.22;100.00;98643.06;5091719;28;20044;-59
2023/12/12 02:13:09;;;;;;;0.35;0.35;;;;;;;6.19;100.00;98643.53;5095390;27;20043;-59
2023/12/12 02:15:36;;;;;;;0.30;0.30;;;;;;;6.19;100.00;98640.88;5089532;28;20093;-59
2023/12/12 02:18:04;;;;;;;0.40;0.40;;;;;;;6.19;100.00;98635.53;5088974;28;20047;-59
2023/12/12 02:20:31;;;;;;;0.47;0.47;;;;;;;6.19;100.00;98640.03;5077650;28;20370;-59
2023/12/12 02:23:00;;;;;;;0.30;0.30;;;;;;;6.07;100.00;98628.56;5092253;28;20067;-59
2023/12/12 02:25:27;;;;;;;0.35;0.35;;;;;;;6.17;100.00;98631.50;5090670;27;20101;-59
2023/12/12 02:27:54;;;;;;;0.40;0.40;;;;;;;6.00;100.00;98633.97;5093852;28;20047;-59
2023/12/12 02:30:24;;;;;;;0.47;0.47;;;;;;;5.91;100.00;98640.63;5091160;28;20048;-59
2023/12/12 02:32:51;;;;;;;0.40;0.40;;;;;;;5.91;100.00;98632.63;5090140;27;20052;-60
2023/12/12 02:35:18;;;;;;;0.40;0.40;;;;;;;5.98;100.00;98636.84;5101264;27;20043;-59
2023/12/12 02:37:45;;;;;;;0.32;0.32;;;;;;;6.02;100.00;98632.72;5088870;28;20073;-60
2023/12/12 02:40:16;;;;;;;0.40;0.40;;;;;;;5.95;100.00;98639.16;5100145;28;20044;-59
2023/12/12 02:42:46;;;;;;;0.30;0.30;;;;;;;5.95;100.00;98636.50;5097730;28;20494;-59
2023/12/12 02:45:13;;;;;;;;;;;;;;;6.04;100.00;98637.78;5095498;28;20641;-59
2023/12/12 02:47:43;;;;;;;0.50;0.50;;;;;;;6.12;100.00;98645.47;5092114;28;19923;-59
2023/12/12 02:50:11;;;;;;;0.40;0.40;;;;;;;6.05;100.00;98636.78;5094831;28;20303;-59
2023/12/12 02:52:39;;;;;;;0.40;0.40;;;;;;;6.15;100.00;98636.22;5099755;28;20051;-59
2023/12/12 02:55:07;;;;;;;0.30;0.30;;;;;;;6.18;100.00;98639.22;5090989;28;20105;-59
2023/12/12 02:57:35;;;;;;;0.40;0.40;;;;;;;6.25;100.00;98637.28;5091304;27;20048;-59
2023/12/12 03:00:05;;;;;;;0.35;0.35;;;;;;;6.23;100.00;98634.03;5098408;28;20043;-58
2023/12/12 03:02:32;;;;;;;0.30;0.30;;;;;;;6.22;100.00;98635.06;5085065;28;20058;-60
2023/12/12 03:04:59;;;;;;;0.32;0.32;;;;;;;6.22;100.00;98642.25;5107099;27;21465;-59
2023/12/12 03:07:27;;;;;;;0.50;0.50;;;;;;;6.25;100.00;98637.28;5090986;28;20052;-60
2023/12/12 03:09:54;;;;;;;0.30;0.30;;;;;;;6.18;100.00;98639.22;5096603;28;20136;-59
2023/12/12 03:12:21;;;;;;;0.40;0.40;;;;;;;6.20;100.00;98644.34;5089099;28;20171;-59
2023/12/12 03:14:50;;;;;;;0.40;0.40;;;;;;;6.14;100.00;98656.69;5091567;28;20052;-59
2023/12/12 03:17:19;;;;;;;0.40;0.40;;;;;;;6.09;100.00;98651.25;5094629;28;20412;-59
2023/12/12 03:19:46;;;;;;;0.30;0.30;;;;;;;6.09;100.00;98653.06;5086915;28;20532;-59
2023/12/12 03:22:13;;;;;;;0.30;0.30;;;;;;;6.15;100.00;98647.66;5090833;28;20035;-60
2023/12/12 03:24:40;;;;;;;0.35;0.35;;;;;;;6.21;100.00;98648.59;5086864;28;20048;-59
2023/12/12 03:27:08;;;;;;;0.35;0.35;;;;;;;6.20;100.00;98641.66;5091579;28;20061;-59
2023/12/12 03:29:35;;;;;;;0.40;0.40;;;;;;;6.20;100.00;98633.69;5093097;28;20063;-59
2023/12/12 03:32:05;;;;;;;0.30;0.30;;;;;;;6.23;100.00;98642.00;5098504;28;20392;-59
2023/12/12 03:34:32;;;;;;;0.30;0.30;;;;;;;6.20;100.00;98633.69;5090632;28;20054;-59
2023/12/12 03:36:59;;;;;;;0.40;0.40;;;;;;;6.24;100.00;98634.84;5094189;28;20114;-62
2023/12/12 03:39:26;;;;;;;0.30;0.30;;;;;;;6.27;100.00;98629.06;5088667;28;20476;-59
2023/12/12 03:41:53;;;;;;;0.30;0.30;;;;;;;6.28;100.00;98628.03;5090437;27;20046;-59
2023/12/12 03:44:20;;;;;;;0.35;0.35;;;;;;;6.33;100.00;98616.69;5093973;28;20044;-59
2023/12/12 03:46:47;;;;;;;0.30;0.30;;;;;;;6.31;100.00;98618.78;5095441;28;20047;-59
2023/12/12 03:49:16;;;;;;;0.40;0.40;;;;;;;6.33;100.00;98611.38;5096107;27;20070;-59
2023/12/12 03:51:43;;;;;;;0.40;0.40;;;;;;;6.35;100.00;98606.63;5084501;28;20068;-59
2023/12/12 03:54:11;;;;;;;0.47;0.47;;;;;;;6.43;100.00;98608.94;5092403;28;20543;-59
2023/12/12 03:56:38;;;;;;;0.30;0.30;;;;;;;6.39;100.00;98618.41;5084728;28;20067;-59
2023/12/12 03:59:08;;;;;;;0.40;0.40;;;;;;;6.47;100.00;98605.59;5094312;28;20576;-59
2023/12/12 04:01:35;;;;;;;0.30;0.30;;;;;;;6.55;100.00;98608.97;5089537;28;20048;-59
2023/12/12 04:04:05;;;;;;;0.32;0.32;;;;;;;6.56;100.00;98610.56;5088883;28;20809;-59
2023/12/12 04:06:43;;;;;;;0.40;0.40;;;;;;;6.59;100.00;98599.44;5094596;28;20093;-59
2023/12/12 04:09:11;;;;;;;0.40;0.40;;;;;;;6.56;100.00;98584.75;5089222;28;20412;-58
2023/12/12 04:11:38;;;;;;;0.40;0.40;;;;;;;6.48;100.00;98582.44;5089212;28;20042;-59
2023/12/12 04:14:05;;;;;;;0.40;0.40;;;;;;;6.52;100.00;98582.81;5088789;28;20050;-59
2023/12/12 04:16:32;;;;;;;0.40;0.40;;;;;;;6.50;100.00;98577.69;5095710;28;20152;-59
2023/12/12 04:18:59;;;;;;;0.40;0.40;;;;;;;6.54;100.00;98576.22;5097210;28;20044;-58
2023/12/12 04:21:26;;;;;;;0.30;0.30;;;;;;;6.48;100.00;98575.25;5094363;28;20130;-58
2023/12/12 04:23:55;;;;;;;0.30;0.30;;;;;;;6.57;100.00;98569.59;5087205;28;20040;-59
2023/12/12 04:26:22;;;;;;;0.50;0.50;;;;;;;6.62;100.00;98569.72;5086852;28;20047;-59
2023/12/12 04:28:49;;;;;;;0.20;0.20;;;;;;;6.55;100.00;98575.16;5092783;28;20071;-58
2023/12/12 04:31:16;;;;;;;0.40;0.40;;;;;;;6.54;100.00;98576.22;5092686;28;20135;-58
2023/12/12 04:33:44;;;;;;;0.30;0.30;;;;;;;6.60;100.00;98569.13;5095035;28;20043;-58
2023/12/12 04:36:14;;;;;;;0.28;0.28;;;;;;;6.56;100.00;98559.97;5088894;27;20104;-58
2023/12/12 04:38:41;;;;;;;0.40;0.40;;;;;;;6.65;100.00;98561.25;5096382;28;20051;-58
2023/12/12 04:41:09;;;;;;;0.40;0.40;;;;;;;6.65;100.00;98561.25;5102640;27;20047;-59
2023/12/12 04:43:36;;;;;;;0.20;0.20;;;;;;;6.63;100.00;98555.34;5093058;28;20146;-58
2023/12/12 04:46:06;;;;;;;0.40;0.40;;;;;;;6.65;100.00;98555.94;5091002;28;20138;-57
2023/12/12 04:48:36;;;;;;;0.40;0.40;;;;;;;6.62;100.00;98562.53;5090853;28;20400;-58
2023/12/12 04:51:09;;;;;;;0.32;0.32;;;;;;;6.61;100.00;98560.91;5087337;28;20654;-58
2023/12/12 04:53:36;;;;;;;0.30;0.30;;;;;;;6.62;100.00;98562.53;5091325;28;20054;-58
2023/12/12 04:56:04;;;;;;;0.30;0.30;;;;;;;6.61;100.00;98555.56;5093930;28;20097;-58
2023/12/12 04:58:32;;;;;;;0.30;0.30;;;;;;;6.70;100.00;98567.50;5089947;28;20517;-58
2023/12/12 05:01:00;;;;;;;0.30;0.30;;;;;;;6.61;100.00;98560.09;5090884;28;20736;-60
2023/12/12 05:03:27;;;;;;;0.32;0.32;;;;;;;6.61;100.00;98557.44;5090848;28;20589;-58
2023/12/12 05:05:54;;;;;;;0.30;0.30;;;;;;;6.59;100.00;98551.53;5090123;28;20120;-59
2023/12/12 05:08:21;;;;;;;0.30;0.30;;;;;;;6.63;100.00;98552.69;5093507;27;20043;-58
2023/12/12 05:10:48;;;;;;;0.40;0.40;;;;;;;6.53;100.00;98547.94;5098972;27;20052;-59
2023/12/12 05:13:15;;;;;;;0.38;0.38;;;;;;;6.44;100.00;98554.66;5095032;28;20287;-58
2023/12/12 05:15:44;;;;;;;0.30;0.30;;;;;;;6.48;100.00;98547.84;5098140;28;20101;-59
2023/12/12 05:18:11;;;;;;;0.38;0.38;;;;;;;6.41;100.00;98549.81;5095040;27;20090;-58
2023/12/12 05:20:38;;;;;;;0.30;0.30;;;;;;;6.44;100.00;98549.31;5097944;28;20140;-58
2023/12/12 05:23:05;;;;;;;0.40;0.40;;;;;;;6.29;100.00;98541.84;5092558;28;20048;-58
2023/12/12 05:25:32;;;;;;;0.40;0.40;;;;;;;6.26;100.00;98545.78;5098624;27;20044;-59
2023/12/12 05:28:00;;;;;;;0.30;0.30;;;;;;;6.21;100.00;98555.47;5097669;27;21035;-59
2023/12/12 05:30:27;;;;;;;0.40;0.40;;;;;;;6.16;100.00;98542.03;5101884;27;20544;-59
2023/12/12 05:32:55;;;;;;;0.30;0.30;;;;;;;6.22;100.00;98551.78;5100310;27;20123;-59
2023/12/12 05:35:23;;;;;;;0.40;0.40;;;;;;;6.21;100.00;98544.81;5094354;27;20118;-59
2023/12/12 05:37:53;;;;;;;0.40;0.40;;;;;;;6.25;100.00;98541.47;5096145;27;20131;-59
2023/12/12 05:40:20;;;;;;;0.30;0.30;;;;;;;6.22;100.00;98541.13;5094977;27;20047;-59
2023/12/12 05:42:47;;;;;;;0.43;0.43;;;;;;;6.23;100.00;98543.53;5095426;28;20057;-59
2023/12/12 05:45:14;;;;;;;0.40;0.40;;;;;;;6.23;100.00;98540.88;5096928;28;20039;-59
2023/12/12 05:47:42;;;;;;;0.40;0.40;;;;;;;6.14;100.00;98539.63;5098924;28;20055;-59
2023/12/12 05:50:11;;;;;;;0.40;0.40;;;;;;;6.16;100.00;98542.84;5103549;27;20142;-60
2023/12/12 05:52:39;;;;;;;0.38;0.38;;;;;;;6.21;100.00;98537.63;5096781;28;20047;-59
2023/12/12 05:55:08;;;;;;;0.40;0.40;;;;;;;6.31;100.00;98541.59;5094431;28;20050;-59
2023/12/12 05:57:36;;;;;;;0.40;0.40;;;;;;;6.31;100.00;98533.59;5092556;28;20054;-59
2023/12/12 06:00:05;;;;;;;0.40;0.40;;;;;;;6.37;100.00;98522.84;5094033;28;20128;-59
2023/12/12 06:02:39;;;;;;;0.38;0.38;;;;;;;6.39;100.00;98523.44;5102472;27;20050;-59
2023/12/12 06:05:07;;;;;;;0.30;0.30;;;;;;;6.40;100.00;98516.25;5095113;27;20328;-60
2023/12/12 06:07:36;;;;;;;0.50;0.50;;;;;;;6.40;100.00;98521.56;5095554;27;20066;-59
2023/12/12 06:10:04;;;;;;;0.30;0.30;;;;;;;6.31;100.00;98522.94;5099861;27;20376;-59
2023/12/12 06:12:31;;;;;;;0.30;0.30;;;;;;;6.33;100.00;98520.88;5091417;27;20888;-59
2023/12/12 06:14:59;;;;;;;0.40;0.40;;;;;;;6.23;100.00;98518.78;5093200;28;20398;-59
2023/12/12 06:17:26;;;;;;;0.40;0.40;;;;;;;6.28;100.00;98518.91;5095402;27;20052;-59
2023/12/12 06:19:54;;;;;;;0.40;0.40;;;;;;;6.24;100.00;98518.56;5099865;27;20054;-60
2023/12/12 06:22:21;;;;;;;0.40;0.40;;;;;;;6.21;100.00;98507.56;5096688;28;20063;-59
2023/12/12 06:24:51;;;;;;;0.40;0.40;;;;;;;6.19;100.00;98507.81;5091868;27;20044;-58
2023/12/12 06:27:18;;;;;;;0.30;0.30;;;;;;;6.17;100.00;98506.44;5098519;27;20067;-60
2023/12/12 06:29:46;;;;;;;0.40;0.40;;;;;;;6.14;100.00;98515.69;5095037;28;20037;-62
2023/12/12 06:32:13;;;;;;;0.40;0.40;;;;;;;6.11;100.00;98516.13;5090127;28;20040;-59
2023/12/12 06:34:43;;;;;;;0.40;0.40;;;;;;;6.05;100.00;98509.88;5090370;28;20431;-59
2023/12/12 06:37:14;;;;;;;0.50;0.50;;;;;;;6.06;100.00;98505.34;5099928;27;20039;-60
2023/12/12 06:39:40;;;;;;;;;;;;;;;6.04;100.00;98504.78;5105571;27;20054;-58
2023/12/12 06:42:09;;;;;;;0.40;0.40;;;;;;;5.96;100.00;98505.13;5091631;28;20479;-60
2023/12/12 06:44:37;;;;;;;0.40;0.40;;;;;;;5.86;100.00;98499.53;5090260;28;20058;-60
2023/12/12 06:47:04;;;;;;;0.47;0.47;;;;;;;5.79;100.00;98497.81;5096121;28;20557;-59
2023/12/12 06:49:32;;;;;;;0.45;0.45;;;;;;;5.76;100.00;98497.44;5105363;27;20047;-59
2023/12/12 06:52:01;;;;;;;0.30;0.30;;;;;;;5.76;100.00;98495.59;5092711;28;20052;-59
2023/12/12 06:54:28;;;;;;;0.50;0.50;;;;;;;5.73;100.00;98498.69;5093526;28;20433;-60
2023/12/12 06:56:55;;;;;;;0.40;0.40;;;;;;;5.78;100.00;98498.81;5098818;28;20051;-59
2023/12/12 06:59:24;;;;;;;0.40;0.40;;;;;;;5.77;100.00;98491.91;5102117;27;20051;-60
2023/12/12 07:01:52;;;;;;;0.25;0.25;;;;;;;5.76;100.00;98486.81;5091351;28;20051;-59
2023/12/12 07:04:21;;;;;;;0.60;0.60;;;;;;;5.67;100.00;98489.00;5094585;28;20043;-60
2023/12/12 07:06:48;;;;;;;0.40;0.40;;;;;;;5.66;100.00;98500.66;5094714;27;20125;-58
2023/12/12 07:09:15;;;;;;;0.40;0.40;;;;;;;5.65;100.00;98492.91;5094664;28;20055;-59
2023/12/12 07:11:47;;;;;;;0.40;0.40;;;;;;;5.65;100.00;98495.59;5094701;28;20044;-59
2023/12/12 07:14:14;;;;;;;0.40;0.40;;;;;;;5.70;100.00;98483.22;5088661;27;20028;-58
2023/12/12 07:16:43;;;;;;;0.40;0.40;;;;;;;5.74;100.00;98476.41;5094969;28;20128;-58
2023/12/12 07:19:10;;;;;;;0.50;0.50;;;;;;;5.78;100.00;98485.53;5096071;28;20055;-58
2023/12/12 07:21:41;;;;;;;0.38;0.38;;;;;;;5.81;100.00;98482.41;5089826;28;20600;-59
2023/12/12 07:24:10;;;;;;;0.43;0.43;;;;;;;5.81;100.00;98479.75;5092065;28;20036;-58
2023/12/12 07:26:37;;;;;;;0.35;0.35;;;;;;;5.83;100.00;98476.88;5098503;28;20066;-59
2023/12/12 07:29:05;;;;;;;0.38;0.38;;;;;;;5.84;100.00;98470.50;5097478;28;20050;-58
2023/12/12 07:31:32;;;;;;;0.40;0.40;;;;;;;5.94;100.00;98465.47;5086353;28;20043;-59
2023/12/12 07:34:00;;;;;;;0.47;0.47;;;;;;;5.99;100.00;98467.41;5091737;28;20046;-59
2023/12/12 07:36:28;;;;;;;0.30;0.30;;;;;;;5.95;100.00;98466.28;5089190;28;20048;-58
2023/12/12 07:38:58;;;;;;;0.30;0.30;;;;;;;5.99;100.00;98462.09;5090035;28;20044;-58
2023/12/12 07:41:25;;;;;;;0.50;0.50;;;;;;;5.90;100.00;98456.28;5091172;28;20131;-60
2023/12/12 07:43:52;;;;;;;0.40;0.40;;;;;;;5.99;100.00;98454.13;5098919;27;20043;-58
2023/12/12 07:46:20;;;;;;;0.40;0.40;;;;;;;6.01;100.00;98449.38;5089575;28;20040;-58
2023/12/12 07:48:50;;;;;;;0.38;0.38;;;;;;;6.12;100.00;98456.56;5096215;28;20070;-59
2023/12/12 07:51:18;;;;;;;0.30;0.30;;;;;;;6.24;100.00;98454.72;5088814;28;20051;-58
2023/12/12 07:53:46;;;;;;;0.40;0.40;;;;;;;6.29;100.00;98455.84;5090208;28;20036;-58
2023/12/12 07:56:13;;;;;;;0.32;0.32;;;;;;;6.36;100.00;98453.88;5101233;27;20086;-58
2023/12/12 07:58:40;;;;;;;0.30;0.30;;;;;;;6.38;100.00;98454.44;5091365;28;20048;-58
2023/12/12 08:01:07;;;;;;;0.20;0.20;;;;;;;6.55;100.00;98455.34;5092948;28;20429;-60
2023/12/12 08:03:34;;;;;;;0.30;0.30;;;;;;;6.48;100.00;98452.81;5096123;27;20071;-58
2023/12/12 08:06:03;;;;;;;0.40;0.40;;;;;;;6.57;100.00;98453.25;5086841;28;20040;-59
2023/12/12 08:08:32;;;;;;;0.40;0.40;;;;;;;6.51;100.00;98448.06;5088110;28;20088;-58
2023/12/12 08:11:00;;;;;;;0.32;0.32;;;;;;;6.56;100.00;98437.50;5089862;28;20054;-59
2023/12/12 08:13:28;;;;;;;0.30;0.30;;;;;;;6.61;100.00;98441.06;5088755;28;20051;-60
2023/12/12 08:15:56;;;;;;;0.40;0.40;;;;;;;6.44;100.00;98448.16;5098645;27;20040;-59
2023/12/12 08:18:23;;;;;;;0.40;0.40;;;;;;;6.48;100.00;98454.66;5091911;28;20147;-58
2023/12/12 08:20:50;;;;;;;0.47;0.47;;;;;;;6.53;100.00;98446.78;5089416;28;20051;-58
2023/12/12 08:23:18;;;;;;;0.30;0.30;;;;;;;6.66;100.00;98446.53;5086792;28;20578;-59
2023/12/12 08:25:49;;;;;;;0.30;0.30;;;;;;;6.83;100.00;98446.56;5097229;27;20086;-58
2023/12/12 08:28:17;;;;;;;0.40;0.40;;;;;;;6.86;100.00;98439.97;5084734;28;21702;-59
2023/12/12 08:30:44;;;;;;;0.30;0.30;;;;;;;6.74;100.00;98436.53;5090282;28;20146;-59
2023/12/12 08:33:11;;;;;;;0.22;0.22;;;;;;;6.74;100.00;98444.50;5096852;28;22186;-59
2023/12/12 08:35:38;;;;;;;0.30;0.30;;;;;;;6.80;100.00;98438.25;5088038;28;20052;-59
2023/12/12 08:38:06;;;;;;;0.30;0.30;;;;;;;6.79;100.00;98437.47;5091900;28;20040;-58
2023/12/12 08:40:33;;;;;;;0.30;0.30;;;;;;;6.90;100.00;98433.13;5096899;28;20052;-59
2023/12/12 08:43:02;;;;;;;0.40;0.40;;;;;;;6.91;100.00;98429.41;5092482;28;20429;-59
2023/12/12 08:45:30;;;;;;;0.35;0.35;;;;;;;6.94;100.00;98430.78;5094888;28;20481;-59
2023/12/12 08:47:57;;;;;;;0.30;0.30;;;;;;;6.92;100.00;98417.72;5098479;27;20048;-59
2023/12/12 08:50:24;;;;;;;0.30;0.30;;;;;;;6.91;100.00;98426.75;5095395;27;20481;-59
2023/12/12 08:52:52;;;;;;;0.30;0.30;;;;;;;7.04;100.00;98423.81;5092242;27;20179;-59
2023/12/12 08:55:19;;;;;;;0.40;0.40;;;;;;;7.10;100.00;98440.69;5098850;28;20055;-59
2023/12/12 08:57:47;;;;;;;0.28;0.28;;;;;;;7.28;100.00;98437.81;5095083;28;20327;-58
2023/12/12 09:00:18;;;;;;;0.40;0.40;;;;;;;7.30;100.00;98434.91;5101241;28;20043;-59
2023/12/12 09:02:44;;;;;;;0.30;0.30;;;;;;;7.24;100.00;98439.34;5096027;28;20040;-58
2023/12/12 09:05:13;;;;;;;0.30;0.30;;;;;;;7.37;100.00;98440.09;5092424;28;20581;-58
2023/12/12 09:07:40;;;;;;;0.20;0.20;;;;;;;7.42;100.00;98432.19;5097145;28;20047;-59
2023/12/12 09:10:07;;;;;;;0.30;0.30;;;;;;;7.35;100.00;98427.00;5096017;28;20207;-59
2023/12/12 09:12:34;;;;;;;0.30;0.30;;;;;;;7.37;100.00;98419.56;5090247;28;20400;-59
2023/12/12 09:15:02;;;;;;;0.28;0.28;;;;;;;7.32;100.00;98411.50;5098728;27;20039;-59
2023/12/12 09:17:31;;;;;;;0.25;0.25;;;;;;;7.17;100.00;98416.56;5109093;27;20063;-59
2023/12/12 09:19:59;;;;;;;0.35;0.35;;;;;;;6.84;100.00;98415.41;5094291;28;20062;-59
2023/12/12 09:22:26;;;;;;;0.30;0.30;;;;;;;7.03;100.00;98413.38;5096954;27;20119;-59
2023/12/12 09:24:54;;;;;;;0.30;0.30;;;;;;;7.12;100.00;98412.75;5089692;28;20626;-59
2023/12/12 09:27:21;;;;;;;0.40;0.40;;;;;;;7.32;100.00;98400.81;5087306;28;20042;-59
2023/12/12 09:29:50;;;;;;;0.40;0.40;;;;;;;7.50;100.00;98386.44;5093289;27;20052;-59
2023/12/12 09:32:18;;;;;;;0.25;0.25;;;;;;;7.73;100.00;98385.44;5087371;28;20458;-59
2023/12/12 09:34:47;;;;;;;0.30;0.30;;;;;;;7.79;100.00;98373.81;5089918;28;20505;-59
2023/12/12 09:37:15;;;;;;;0.30;0.30;;;;;;;7.93;100.00;98375.06;5091445;28;20048;-59
2023/12/12 09:39:42;;;;;;;0.30;0.30;;;;;;;7.93;100.00;98375.06;5101710;27;20134;-58
2023/12/12 09:42:12;;;;;;;0.30;0.30;;;;;;;7.98;100.00;98377.81;5095115;28;20126;-59
2023/12/12 09:44:39;;;;;;;0.30;0.30;;;;;;;7.91;100.00;98374.53;5094205;28;20513;-59
2023/12/12 09:47:07;;;;;;;0.30;0.30;;;;;;;8.10;100.00;98376.91;5095253;28;20044;-59
2023/12/12 09:49:34;;;;;;;0.30;0.30;;;;;;;7.96;100.00;98369.25;5088825;28;20043;-58
2023/12/12 09:52:04;;;;;;;0.30;0.30;;;;;;;7.67;100.00;98357.91;5087764;28;20047;-60
2023/12/12 09:54:36;;;;;;;0.40;0.40;;;;;;;7.82;100.00;98365.31;5112802;27;20052;-60
2023/12/12 09:57:04;;;;;;;0.30;0.30;;;;;;;7.74;100.00;98353.22;5088840;28;20135;-59
2023/12/12 09:59:31;;;;;;;0.30;0.30;;;;;;;7.76;100.00;98347.63;5093345;28;20035;-59
2023/12/12 10:01:58;;;;;;;0.30;0.30;;;;;;;7.82;100.00;98346.66;5092859;28;20134;-59
2023/12/12 10:04:26;;;;;;;0.20;0.20;;;;;;;7.74;100.00;98339.88;5092945;28;20062;-59
2023/12/12 10:06:53;;;;;;;0.20;0.20;;;;;;;7.92;100.00;98329.97;5090700;28;20509;-59
2023/12/12 10:09:22;;;;;;;0.20;0.20;;;;;;;8.05;100.00;98331.47;5095156;28;20035;-59
2023/12/12 10:11:49;;;;;;;0.30;0.30;;;;;;;7.67;100.00;98317.09;5089994;28;20056;-59
2023/12/12 10:14:38;;;;;;;0.40;0.40;;;;;;;7.84;100.00;98315.19;5089688;27;20055;-59
2023/12/12 10:17:06;;;;;;;0.30;0.30;;;;;;;7.90;100.00;98306.19;5093329;28;20044;-59
2023/12/12 10:19:33;;;;;;;0.20;0.20;;;;;;;7.75;100.00;98308.66;5090019;28;20368;-58
2023/12/12 10:22:03;;;;;;;0.30;0.30;;;;;;;7.98;100.00;98304.97;5089285;28;20619;-59
2023/12/12 10:24:31;;;;;;;0.30;0.30;;;;;;;7.96;100.00;98299.88;5093215;28;20148;-59
2023/12/12 10:26:59;;;;;;;0.30;0.30;;;;;;;8.02;100.00;98297.28;5086118;28;20063;-59
2023/12/12 10:29:26;;;;;;;0.40;0.40;;;;;;;8.20;100.00;98283.59;5086716;27;20818;-58
2023/12/12 10:31:53;;;;;;;0.22;0.22;;;;;;;8.31;100.00;98277.34;5092863;28;20040;-59
2023/12/12 10:34:23;;;;;;;0.38;0.38;;;;;;;8.37;100.00;98273.66;5090743;28;20075;-59
2023/12/12 10:36:51;;;;;;;0.20;0.20;;;;;;;8.43;100.00;98278.00;5089065;28;20203;-58
2023/12/12 10:39:18;;;;;;;0.22;0.22;;;;;;;8.16;100.00;98261.13;5086242;28;20130;-59
2023/12/12 10:41:55;;;;;;;0.30;0.30;;;;;;;8.34;100.00;98252.78;5093977;28;20051;-58
2023/12/12 10:44:22;;;;;;;0.20;0.20;;;;;;;8.30;100.00;98262.34;5095171;28;20043;-58
2023/12/12 10:46:52;;;;;;;0.30;0.30;;;;;;;8.11;100.00;98250.41;5091594;27;20085;-59
2023/12/12 10:49:22;;;;;;;0.30;0.30;;;;;;;8.36;100.00;98240.00;5088017;28;20146;-58
2023/12/12 10:51:50;;;;;;;0.20;0.20;;;;;;;8.40;100.00;98233.13;5090184;28;20599;-60
2023/12/12 10:54:17;;;;;;;0.30;0.30;;;;;;;8.39;100.00;98228.84;5102386;27;20045;-58
2023/12/12 10:56:46;;;;;;;0.20;0.20;;;;;;;8.32;100.00;98222.06;5096123;28;20562;-58
2023/12/12 10:59:16;;;;;;;0.30;0.30;;;;;;;8.29;100.00;98217.25;5088369;27;20040;-58
2023/12/12 11:01:45;;;;;;;0.20;0.20;;;;;;;8.27;100.00;98214.81;5087500;28;20047;-58
2023/12/12 11:04:14;;;;;;;0.20;0.20;;;;;;;8.29;100.00;98215.38;5089974;27;20046;-58
2023/12/12 11:06:42;;;;;;;0.20;0.20;;;;;;;8.39;100.00;98212.81;5093203;27;20156;-58
2023/12/12 11:09:10;;;;;;;0.25;0.25;;;;;;;8.45;100.00;98207.53;5087497;28;20110;-58
2023/12/12 11:11:37;;;;;;;0.40;0.40;;;;;;;8.34;100.00;98204.75;5089779;28;20448;-58
2023/12/12 11:14:05;;;;;;;0.30;0.30;;;;;;;8.37;100.00;98206.91;5092261;27;20059;-58
2023/12/12 11:16:34;;;;;;;0.20;0.20;;;;;;;8.35;100.00;98197.53;5091050;28;20053;-58
2023/12/12 11:19:02;;;;;;;0.20;0.20;;;;;;;8.20;100.00;98195.53;5084163;28;20135;-58
2023/12/12 11:21:46;;;;;;;0.20;0.20;;;;;;;8.42;100.00;98195.50;5088596;28;20335;-60
2023/12/12 11:24:13;;;;;;;0.30;0.30;;;;;;;8.27;100.00;98190.78;5091163;28;20139;-58
2023/12/12 11:26:42;;;;;;;0.22;0.22;;;;;;;8.48;100.00;98188.31;5087205;28;20059;-57
2023/12/12 11:29:10;;;;;;;0.20;0.20;;;;;;;8.54;100.00;98187.31;5092438;28;20067;-59
2023/12/12 11:31:57;;;;;;;0.30;0.30;;;;;;;8.48;100.00;98182.97;5096047;28;20047;-60
2023/12/12 11:34:27;;;;;;;0.20;0.20;;;;;;;8.35;100.00;98178.84;5095201;28;20980;-58
2023/12/12 11:36:57;;;;;;;0.30;0.30;;;;;;;8.31;100.00;98170.53;5093635;28;20488;-60
2023/12/12 11:39:30;;;;;;;0.20;0.20;;;;;;;8.32;100.00;98163.34;5097570;28;20112;-60